Tiempo atmosférico en la estación meteorológica de Barcena de Cicero, Treto, Cantabria (10 m.)



Fecha
DESCASC
Temp. máxima en grados centígrados (hora)
DESCASC
Temp. mínima en grados centígrados (hora)
DESCASC
Temp. media en grados centígrados
DESCASC
Racha de viento máxima en m/sg (hora)
DESCASC
Velocidad máxima media en intervalos de 10 minutos(hora)
DESCASC
Precipitaciones diarias en mm
DESCASC
Precipitaciones de 00:00 a 06:00 en mm
DESCASC
Precipitaciones de 06:00 a 12:00 en mm
DESCASC
Precipitaciones de 12:00 a 18:00 en mm
DESCASC
Precipitaciones de 18:00 a 24:00 en mm
DESCASC
21-02-2021 18.3 (12:10) 7.4 (23:50) 12.8 11.67 (14:00) 6.39 (13:10) 16.8 0 0 0 16.8
20-02-2021 22.4 (13:00) 14.5 (23:59) 18.4 15.28 (01:10) 8.06 (01:10) 0 0 0 0 0
19-02-2021 20.9 (21:00) 6 (00:30) 13.4 14.72 (23:20) 7.5 (23:50) 0 0 0 0 0
18-02-2021 18.7 (00:00) 6.5 (00:00) 12.6 14.44 (07:00) 6.11 (07:20) 0.2 0 0 0 0.2
17-02-2021 18.7 (23:50) 4.5 (00:00) 11.6 8.61 (20:20) 4.72 (20:20) 0 0 0 0 0
16-02-2021 19.1 (11:40) 8 (00:00) 13.6 16.11 (11:50) 8.06 (12:00) 0 0 0 0 0
15-02-2021 22 (15:10) 8.2 (00:00) 15.1 10.28 (23:40) 6.39 (22:30) 0 0 0 0 0
14-02-2021 21 (14:10) 5.2 (00:00) 13.1 8.61 (17:40) 4.72 (17:30) 0 0 0 0 0
13-02-2021 16.2 (15:00) 6.8 (00:00) 11.5 6.67 (04:20) 3.33 (08:00) 0 0 0 0 0
12-02-2021 18.2 (02:50) 8.2 (00:00) 13.2 13.89 (15:20) 6.67 (03:50) 10.7 2.2 2.4 6.1 0
11-02-2021 17.2 (13:00) 6 (00:00) 11.6 4.44 (01:00) 2.78 (01:00) 0.2 0 0 0.2 0
10-02-2021 14 (15:10) 5.7 (00:00) 9.8 13.33 (12:10) 6.39 (12:20) 1.4 0.2 1.2 0 0
09-02-2021 16 (11:50) 7.2 (00:00) 11.6 14.17 (12:30) 6.39 (12:30) 1.4 0.4 0 1 0
08-02-2021 15.3 (13:40) 7.1 (00:00) 11.2 8.89 (14:30) 5.28 (14:20) 0.2 0.2 0 0 0
07-02-2021 12 (12:50) 6.8 (00:00) 9.4 6.67 (01:00) 3.61 (02:00) 1.8 0.8 0.2 0 0.8
06-02-2021 11.6 (02:40) 7.3 (00:00) 9.5 11.39 (08:10) 6.11 (09:10) 43 15 22.4 5.2 0.4
05-02-2021 11.5 (14:50) 9.4 (00:00) 10.4 7.78 (23:20) 4.44 (23:20) 11.2 1.6 5.4 1.6 2.6
04-02-2021 16.4 (02:10) 9.7 (00:00) 13 10.83 (06:10) 5 (06:30) 6.2 0 0 3.2 3
03-02-2021 18.6 (03:10) 9.4 (00:00) 14 16.11 (04:20) 7.22 (05:40) 0 0 0 0 0
02-02-2021 21.7 (13:10) 8.3 (00:00) 15 10 (20:20) 5.28 (16:00) 1 0 0 0.6 0.4
01-02-2021 17.1 (15:30) 13.2 (00:00) 15.2 16.67 (00:10) 8.61 (00:10) 0 0 0 0 0
31-01-2021 17.5 (15:50) 10.9 (00:00) 14.2 21.11 (02:50) 11.11 (01:40) 1.2 0 1.2 0 0
30-01-2021 18.3 (01:40) 10.2 (00:00) 14.2 18.06 (23:59) 8.89 (23:50) 1.8 0 1.4 0.4 0
29-01-2021 17.3 (13:50) 10 (00:00) 13.6 4.44 (05:50) 2.78 (11:20) 4.8 1.4 3.4 0 0
28-01-2021 18.1 (13:40) 10.2 (00:00) 14.2 5.28 (11:20) 3.33 (11:50) 0 0 0 0 0
27-01-2021 18.3 (14:50) 12.7 (00:00) 15.5 6.67 (07:50) 2.78 (02:20) 6.8 3.6 3.2 0 0
26-01-2021 14.7 (15:50) 4 (00:00) 9.3 6.11 (12:20) 3.89 (12:20) 2 0.2 0 0 1.8
25-01-2021 10.4 (00:10) 7.9 (00:00) 9.1 5.28 (13:30) 2.78 (14:10) 11.2 5.8 2.6 2.6 0.2

Gráficas

Temp. máximas Temp. mínimas Temp. medias Precipitaciones Rachas de viento máximas Velocidades máximas media en intervalos de 10 minutos

Datos horarios

Fecha y hora oficial Temperatura (ºC) Velocidad del viento (km/h) Dirección del viento Racha (km/h) Dirección de racha Precipitación (mm) Presión (hPa) Tendencia (hPa) Humedad (%)
2021-02-23 23:00:00 10.1 6 Sudoeste 12 Sudoeste 0 -- -- 63
2021-02-23 22:00:00 9.9 4 Sur 10 Oeste 0 -- -- 63
2021-02-23 21:00:00 15.5 5 Sur 18 Sudeste 0 -- -- 39
2021-02-23 20:00:00 15.9 10 Sur 19 Sur 0 -- -- 33
2021-02-23 19:00:00 16.9 8 Sur 17 Sur 0 -- -- 28
2021-02-23 18:00:00 18.9 10 Sudeste 18 Sur 0 -- -- 26
2021-02-23 17:00:00 21.1 6 Sudeste 15 Sur 0 -- -- 23
2021-02-23 16:00:00 21.1 5 Nordeste 14 Norte 0 -- -- 23
2021-02-23 15:00:00 20.6 5 Nordeste 14 Noroeste -- -- -- 23
2021-02-23 14:00:00 20.1 10 Oeste 17 Noroeste 0 -- -- 26
2021-02-23 13:00:00 19.7 9 Sudeste 21 Sudeste 0 -- -- 31
2021-02-23 12:00:00 18.5 5 Sudeste 14 Sudeste 0 -- -- 37
2021-02-23 11:00:00 15.7 5 Noroeste 13 Sudoeste 0 -- -- 47
2021-02-23 10:00:00 11.2 4 Sur 10 Noroeste 0 -- -- 71
2021-02-23 09:00:00 5.6 6 Noroeste 11 Noroeste 0 -- -- 94
2021-02-23 08:00:00 3.9 5 Noroeste 11 Noroeste 0 -- -- 95
2021-02-23 07:00:00 4.1 3 Sudoeste 8 Noroeste 0 -- -- 95
2021-02-23 06:00:00 4.9 4 Oeste 18 Sudeste 0 -- -- 88
2021-02-23 05:00:00 4.7 3 Sur 12 Sudoeste 0 -- -- 96
2021-02-23 04:00:00 4.2 3 Sur 7 Oeste 0 -- -- 96
2021-02-23 03:00:00 4.7 4 Noroeste 10 Noroeste 0 -- -- 95
2021-02-23 02:00:00 5.3 3 Sur 13 Sur 0 -- -- 95
2021-02-23 01:00:00 5.7 9 Sur 13 Sudeste 0 -- -- 97
2021-02-23 00:00:00 5.5 4 Sudeste 8 Oeste 0 -- -- 96
2021-02-22 23:00:00 6.3 3 Sur 8 Sur 0 -- -- 96
2021-02-22 22:00:00 7.1 3 Oeste 6 Oeste 0 -- -- 91
2021-02-22 21:00:00 8.2 4 Sudeste 8 Sudeste 0 -- -- 89
2021-02-22 20:00:00 9.9 4 Este 10 Este 0 -- -- 79
2021-02-22 19:00:00 10.8 0 Calma 13 Nordeste 0 -- -- 73
2021-02-22 18:00:00 12.4 8 Norte 15 Norte 0 -- -- 66
2021-02-22 17:00:00 13.6 6 Nordeste 11 Nordeste 0 -- -- 61
2021-02-22 16:00:00 14 4 Este 14 Noroeste 0 -- -- 60
2021-02-22 15:00:00 12.5 9 Noroeste 24 Noroeste 0 -- -- 64
2021-02-22 14:00:00 12.8 9 Oeste 19 Oeste 0.2 -- -- 69
2021-02-22 13:00:00 11.4 10 Noroeste 25 Oeste 0 -- -- 74
2021-02-22 12:00:00 10.9 12 Oeste 25 Oeste 0 -- -- 79
2021-02-22 11:00:00 9.9 10 Oeste 24 Oeste 0.4 -- -- 90
2021-02-22 10:00:00 9.2 12 Oeste 24 Oeste 0.2 -- -- 90
2021-02-22 09:00:00 9 12 Oeste 27 Oeste 0 -- -- 89
2021-02-22 08:00:00 8.8 9 Oeste 27 Oeste 0.8 -- -- 91
2021-02-22 07:00:00 8.8 7 Oeste 22 Sudoeste 1 -- -- 92
2021-02-22 06:00:00 8.5 8 Sudoeste 18 Sudoeste 1 -- -- 92
2021-02-22 05:00:00 8.2 7 Sudoeste 22 Oeste 1.8 -- -- 92
2021-02-22 04:00:00 8.2 12 Sudoeste 23 Oeste 1.6 -- -- 92
2021-02-22 03:00:00 8.1 9 Sudoeste 26 Oeste 2.8 -- -- 93
2021-02-22 02:00:00 7.9 8 Sudoeste 20 Sudoeste 2.8 -- -- 92
2021-02-22 01:00:00 7.8 8 Sudoeste 20 Sudoeste 3.8 -- -- 92
2021-02-22 00:00:00 7.4 8 Sudoeste 19 Sudoeste 4 -- -- 92
2021-02-21 23:00:00 8.1 8 Sudoeste 24 Sudoeste 4.4 -- -- 91
2021-02-21 22:00:00 8.5 13 Sudoeste 25 Oeste 3.6 -- -- 91
2021-02-21 21:00:00 8.7 11 Sudoeste 24 Sudoeste 3.2 -- -- 91
2021-02-21 20:00:00 9 5 Sudoeste 21 Oeste 1.2 -- -- 90
2021-02-21 19:00:00 9.5 8 Oeste 20 Oeste 0.4 -- -- 89
2021-02-21 18:00:00 10.3 12 Oeste 37 Oeste 0 -- -- 85
2021-02-21 17:00:00 11 19 Oeste 35 Oeste 0 -- -- 82
2021-02-21 16:00:00 13.1 17 Oeste 32 Noroeste 0 -- -- 76
2021-02-21 15:00:00 15.4 15 Noroeste 34 Sudeste 0 -- -- 65
2021-02-21 14:00:00 17.9 22 Sudeste 42 Sudeste 0 -- -- 39
2021-02-21 13:00:00 17.3 21 Sudeste 37 Sudeste 0 -- -- 43
2021-02-21 12:00:00 18 13 Sudeste 30 Nordeste 0 -- -- 42
2021-02-21 11:00:00 16.5 17 Este 27 Este 0 -- -- 44
2021-02-21 10:00:00 14.9 10 Este 21 Sudeste 0 -- -- 48
2021-02-21 09:00:00 14.7 9 Este 31 Sudeste 0 -- -- 47
2021-02-21 08:00:00 16.3 13 Sudeste 28 Sudeste 0 -- -- 38
2021-02-21 07:00:00 15.5 9 Este 25 Sudeste 0 -- -- 43
2021-02-21 06:00:00 15.6 12 Nordeste 23 Nordeste 0 -- -- 43
2021-02-21 05:00:00 14.6 6 Norte 15 Sudeste 0 -- -- 46
2021-02-21 04:00:00 14.4 3 Sudoeste 9 Sudoeste 0 -- -- 45
2021-02-21 03:00:00 16.1 3 Noroeste 18 Este 0 -- -- 38
2021-02-21 02:00:00 15.4 5 Este 26 Nordeste 0 -- -- 42
2021-02-21 01:00:00 16 4 Sudeste 15 Este 0 -- -- 38
2021-02-21 00:00:00 14.5 3 Norte 11 Sudeste 0 -- -- 34
2021-02-20 23:00:00 16.2 0 Calma 8 Oeste 0 -- -- 29
2021-02-20 22:00:00 18.5 4 Este 26 Sudeste 0 -- -- 29
2021-02-20 21:00:00 19.5 6 Sudeste 41 Sur 0 -- -- 26
2021-02-20 20:00:00 21 21 Sur 51 Sudoeste 0 -- -- 19
2021-02-20 19:00:00 21.3 24 Sur 43 Sur 0 -- -- 18
2021-02-20 18:00:00 21.3 18 Sur 35 Sur 0 -- -- 18
2021-02-20 17:00:00 21.8 18 Sur 36 Sudeste 0 -- -- 18
2021-02-20 16:00:00 21.8 18 Sudeste 43 Sudeste 0 -- -- 19
2021-02-20 15:00:00 21.9 16 Sudeste 39 Sur 0 -- -- 21
2021-02-20 14:00:00 21.8 18 Sudeste 40 Sudeste 0 -- -- 21
2021-02-20 13:00:00 22.4 18 Sur 42 Sudeste 0 -- -- 21
2021-02-20 12:00:00 20.8 20 Sudeste 48 Sudeste 0 -- -- 24
2021-02-20 11:00:00 20 22 Sur 50 Sur 0 -- -- 24
2021-02-20 10:00:00 18.9 16 Sur 40 Sur 0 -- -- 25
2021-02-20 09:00:00 18.4 16 Sur 46 Sur 0 -- -- 24
2021-02-20 08:00:00 17.9 15 Sudeste 37 Sur 0 -- -- 25
2021-02-20 07:00:00 18.2 20 Sudeste 42 Sur 0 -- -- 24
2021-02-20 06:00:00 18.3 19 Sur 44 Sur 0 -- -- 25
2021-02-20 05:00:00 18.7 20 Sur 47 Sur 0 -- -- 25
2021-02-20 04:00:00 18.7 23 Sur 41 Sur 0 -- -- 27
2021-02-20 03:00:00 18.9 16 Sur 39 Sur 0 -- -- 27
2021-02-20 02:00:00 19.1 23 Sur 55 Sur 0 -- -- 27
2021-02-20 01:00:00 19.4 26 Sur 51 Sur 0 -- -- 26
2021-02-20 00:00:00 19.6 21 Sur 53 Sur 0 -- -- 23
2021-02-19 23:00:00 20.2 18 Sur 43 Sur 0 -- -- 22
2021-02-19 22:00:00 20.4 16 Sur 41 Sur 0 -- -- 20
2021-02-19 21:00:00 20.9 17 Sur 34 Sur 0 -- -- 21
2021-02-19 20:00:00 20.4 10 Sur 37 Sudoeste 0 -- -- 22
2021-02-19 19:00:00 15.8 3 Oeste 13 Sudoeste 0 -- -- 48
2021-02-19 18:00:00 17.9 2 Oeste 17 Sudoeste 0 -- -- 42
2021-02-19 17:00:00 19.9 8 Sudoeste 17 Sudoeste 0 -- -- 28
2021-02-19 16:00:00 20.4 5 Sudoeste 25 Sudeste 0 -- -- 25
2021-02-19 15:00:00 20.1 17 Sudeste 36 Sur 0 -- -- 31
2021-02-19 14:00:00 19.5 7 Sudeste 23 Sur 0 -- -- 39
2021-02-19 13:00:00 20.4 9 Sur 25 Sudeste 0 -- -- 40
2021-02-19 12:00:00 18.6 5 Sudoeste 15 Sur 0 -- -- 51
2021-02-19 11:00:00 15.9 3 Noroeste 9 Noroeste 0 -- -- 59
2021-02-19 10:00:00 14.6 4 Noroeste 12 Noroeste 0 -- -- 64
2021-02-19 09:00:00 11.4 4 Noroeste 12 Noroeste 0 -- -- 73
2021-02-19 08:00:00 9.5 3 Oeste 7 Oeste 0 -- -- 78
2021-02-19 07:00:00 10.6 2 Oeste 19 Sur 0 -- -- 67
2021-02-19 06:00:00 12.3 8 Sur 24 Norte 0 -- -- 65
2021-02-19 05:00:00 11.5 5 Sur 19 Sur 0 -- -- 67
2021-02-19 04:00:00 15.9 9 Sudoeste 34 Sudoeste 0 -- -- 50
2021-02-19 03:00:00 7.3 7 Sudeste 17 Sudeste 0 -- -- 98
2021-02-19 02:00:00 6.8 4 Sudeste 12 Sur 0 -- -- 96
2021-02-19 01:00:00 6.1 3 Sudeste 9 Sudoeste 0 -- -- 97
2021-02-19 00:00:00 6.5 3 Este 10 Sudeste 0 -- -- 95
2021-02-18 23:00:00 7.5 3 Sur 10 Sudeste 0 -- -- 94
2021-02-18 22:00:00 7.8 4 Sur 10 Sudeste 0 -- -- 92
2021-02-18 21:00:00 9.4 7 Sudeste 13 Sur 0 -- -- 88
2021-02-18 20:00:00 10.2 4 Sur 11 Sudeste 0 -- -- 86
2021-02-18 19:00:00 10.6 4 Sur 7 Sur 0.2 -- -- 83
2021-02-18 18:00:00 11.6 3 Sur 10 Sur 0 -- -- 75
2021-02-18 17:00:00 12.1 6 Sudoeste 12 Oeste 0 -- -- 74
2021-02-18 16:00:00 11.7 4 Sudoeste 9 Sur 0 -- -- 81
2021-02-18 15:00:00 11.9 4 Oeste 17 Oeste -- -- -- 77
2021-02-18 14:00:00 11.9 9 Oeste 23 Noroeste 0 -- -- 79
2021-02-18 13:00:00 12.5 13 Noroeste 27 Noroeste 0 -- -- 79
2021-02-18 12:00:00 12.8 16 Noroeste 29 Noroeste 0 -- -- 74
2021-02-18 11:00:00 13.3 14 Oeste 34 Noroeste 0 -- -- 71
2021-02-18 10:00:00 15 11 Noroeste 51 Oeste 0 -- -- 63
2021-02-18 09:00:00 17 20 Sudoeste 42 Sur 0 -- -- 44
2021-02-18 08:00:00 17 16 Sur 46 Sur 0 -- -- 43
2021-02-18 07:00:00 17.4 17 Sudoeste 52 Sudoeste 0 -- -- 42
2021-02-18 06:00:00 16.3 6 Sudoeste 18 Oeste 0 -- -- 46
2021-02-18 05:00:00 16.6 9 Sudoeste 18 Sur 0 -- -- 47
2021-02-18 04:00:00 16.8 8 Sudoeste 18 Sur 0 -- -- 46
2021-02-18 03:00:00 17.2 8 Sur 30 Sur 0 -- -- 45
2021-02-18 02:00:00 18.6 18 Sudoeste 35 Sudoeste 0 -- -- 40
2021-02-18 01:00:00 18.1 12 Sudoeste 21 Sudoeste 0 -- -- 47
2021-02-18 00:00:00 18.7 13 Sur 22 Sur 0 -- -- 45
2021-02-17 23:00:00 17.3 9 Sur 20 Sur 0 -- -- 52
2021-02-17 22:00:00 18.2 7 Sudoeste 17 Sudeste 0 -- -- 47
2021-02-17 21:00:00 17.4 11 Sudeste 31 Sudeste 0 -- -- 52
2021-02-17 20:00:00 17.7 12 Sur 27 Sur 0 -- -- 49
2021-02-17 19:00:00 14.9 4 Sudoeste 9 Sudoeste 0 -- -- 65
2021-02-17 18:00:00 15 2 Nordeste 8 Noroeste 0 -- -- 70
2021-02-17 17:00:00 15.5 3 Noroeste 14 Nordeste 0 -- -- 67
2021-02-17 16:00:00 15.4 6 Nordeste 13 Noroeste 0 -- -- 68
2021-02-17 15:00:00 16.2 5 Norte 19 Nordeste 0 -- -- 58
2021-02-17 14:00:00 16.2 10 Nordeste 17 Nordeste 0 -- -- 61
2021-02-17 13:00:00 15.1 5 Nordeste 13 Norte 0 -- -- 63
2021-02-17 12:00:00 14.6 4 Norte 8 Nordeste 0 -- -- 66
2021-02-17 11:00:00 12 3 Este 7 Este 0 -- -- 90
2021-02-17 10:00:00 8.5 4 Sudeste 11 Sur 0 -- -- 100
2021-02-17 09:00:00 4.8 5 Sudeste 10 Sudeste 0 -- -- 100
2021-02-17 08:00:00 4.9 3 Sudeste 12 Sudoeste 0 -- -- 98
2021-02-17 07:00:00 5.1 2 Sur 9 Sudoeste 0 -- -- 98
2021-02-17 06:00:00 6 3 Sur 15 Sur 0 -- -- 97
2021-02-17 05:00:00 5.8 4 Sur 8 Sudeste 0 -- -- 98
2021-02-17 04:00:00 6.6 3 Sur 16 Sudeste 0 -- -- 97
2021-02-17 03:00:00 6.6 6 Sur 12 Sur 0 -- -- 96
2021-02-17 02:00:00 7.9 9 Sur 18 Sudeste 0 -- -- 95
2021-02-17 01:00:00 7.7 7 Sur 15 Sur 0 -- -- 94
2021-02-17 00:00:00 8 5 Sur 9 Sudeste 0 -- -- 93
2021-02-16 23:00:00 8.7 3 Sur 12 Sudeste 0 -- -- 89
2021-02-16 22:00:00 10.5 7 Sudeste 12 Sur 0 -- -- 86
2021-02-16 21:00:00 10.8 2 Sur 6 Sudeste 0 -- -- 80
2021-02-16 20:00:00 12.7 5 Sur 8 Sur 0 -- -- 73
2021-02-16 19:00:00 13.2 4 Sudeste 9 Sudeste 0 -- -- 74
2021-02-16 18:00:00 14.6 0 Calma 5 Sur 0 -- -- 60
2021-02-16 17:00:00 14.5 3 Sudeste 8 Sudeste 0 -- -- 61
2021-02-16 16:00:00 14.1 4 Sudeste 12 Sudoeste 0 -- -- 65
2021-02-16 15:00:00 13.7 5 Sudoeste 21 Oeste 0 -- -- 67
2021-02-16 14:00:00 13.8 13 Oeste 30 Noroeste 0 -- -- 66
2021-02-16 13:00:00 14.6 21 Oeste 48 Oeste 0 -- -- 63
2021-02-16 12:00:00 15.2 29 Oeste 58 Oeste 0 -- -- 61
2021-02-16 11:00:00 18.1 20 Sudoeste 45 Sudoeste 0 -- -- 34
2021-02-16 10:00:00 16.1 12 Sur 36 Sudeste 0 -- -- 42
2021-02-16 09:00:00 14.9 22 Sur 41 Sur 0 -- -- 45
2021-02-16 08:00:00 16.3 14 Sudoeste 27 Sudoeste 0 -- -- 38
2021-02-16 07:00:00 17.8 11 Sudoeste 23 Sudoeste 0 -- -- 33
2021-02-16 06:00:00 17.8 8 Sudoeste 23 Sur 0 -- -- 32
2021-02-16 05:00:00 16 15 Sudeste 35 Sudeste 0 -- -- 44
2021-02-16 04:00:00 17.4 13 Sudeste 27 Sur 0 -- -- 39
2021-02-16 03:00:00 18.1 19 Sudeste 33 Sudeste 0 -- -- 36
2021-02-16 02:00:00 17 14 Sudeste 35 Sudeste 0 -- -- 42
2021-02-16 01:00:00 16 20 Sudeste 42 Sudeste 0 -- -- 45
2021-02-16 00:00:00 17.1 20 Sudeste 37 Sur 0 -- -- 41
2021-02-15 23:00:00 16.5 15 Sudeste 35 Sudeste 0 -- -- 44
2021-02-15 22:00:00 17.9 14 Sudeste 31 Sudeste 0 -- -- 40
2021-02-15 21:00:00 17.3 16 Sudeste 30 Sudeste 0 -- -- 40
2021-02-15 20:00:00 15.2 6 Sudeste 17 Este 0 -- -- 47
2021-02-15 19:00:00 16.1 9 Sudeste 16 Sudeste 0 -- -- 48
2021-02-15 18:00:00 19 6 Sudeste 14 Sudeste 0 -- -- 41
2021-02-15 17:00:00 20.5 8 Sur 31 Sudeste 0 -- -- 33
2021-02-15 16:00:00 20.5 11 Sudeste 22 Sudeste -- -- -- 39
2021-02-15 15:00:00 21.9 13 Sudeste 28 Sudeste 0 -- -- 39
2021-02-15 14:00:00 20.9 7 Sudeste 20 Sudeste 0 -- -- 43
2021-02-15 13:00:00 20.4 10 Sudeste 22 Sudeste 0 -- -- 39
2021-02-15 12:00:00 18.8 10 Sudeste 23 Sudeste 0 -- -- 45
2021-02-15 11:00:00 16.8 6 Sudeste 14 Sur 0 -- -- 55
2021-02-15 10:00:00 12.5 3 Este 9 Sudeste 0 -- -- 75
2021-02-15 09:00:00 8.2 2 Sur 8 Este 0 -- -- 82
2021-02-15 08:00:00 8.9 3 Sur 8 Oeste 0 -- -- 77
2021-02-15 07:00:00 9.2 3 Noroeste 9 Oeste 0 -- -- 78
2021-02-15 06:00:00 10.8 2 Sur 19 Sudeste 0 -- -- 70
2021-02-15 05:00:00 10.7 4 Sudeste 17 Sudeste 0 -- -- 73
2021-02-15 04:00:00 9.8 4 Oeste 22 Sudeste 0 -- -- 75
2021-02-15 03:00:00 16.1 13 Sudeste 27 Sudeste 0 -- -- 53
2021-02-15 02:00:00 15.4 11 Sudeste 32 Sudeste 0 -- -- 58
2021-02-15 01:00:00 10.7 3 Oeste 13 Sudeste 0 -- -- 73
2021-02-15 00:00:00 14.5 9 Sudeste 20 Sudeste 0 -- -- 61
2021-02-14 23:00:00 14.7 4 Sur 26 Sudeste 0 -- -- 59
2021-02-14 22:00:00 15.7 10 Sudeste 19 Sudeste 0 -- -- 58
2021-02-14 21:00:00 16.2 3 Sur 17 Sudeste 0 -- -- 57
2021-02-14 20:00:00 17.1 11 Sudeste 28 Sudeste 0 -- -- 56
2021-02-14 19:00:00 16.9 14 Sudeste 26 Sur 0 -- -- 56
2021-02-14 18:00:00 17.4 15 Sudeste 31 Sudeste 0 -- -- 53
2021-02-14 17:00:00 18.2 13 Sudeste 31 Sudeste 0 -- -- 52
2021-02-14 16:00:00 19.2 16 Sudeste 26 Sudeste 0 -- -- 52
2021-02-14 15:00:00 19.4 10 Sudeste 19 Sudeste 0 -- -- 54
2021-02-14 14:00:00 20.6 9 Sudeste 26 Sudeste 0 -- -- 50
2021-02-14 13:00:00 19.3 4 Nordeste 7 Nordeste 0 -- -- 62
2021-02-14 12:00:00 16.9 2 Sudeste 13 Sur 0 -- -- 73
2021-02-14 11:00:00 14.2 6 Sur 11 Sudeste 0 -- -- 78
2021-02-14 10:00:00 9.3 5 Sudoeste 23 Sudeste 0 -- -- 97
2021-02-14 09:00:00 7.2 13 Sur 24 Sur 0 -- -- 99
2021-02-14 08:00:00 5.2 6 Sur 15 Sudeste 0 -- -- 98
2021-02-14 07:00:00 5.6 6 Sudeste 15 Sur 0 -- -- 97
2021-02-14 06:00:00 6.2 5 Sur 15 Sur 0 -- -- 97
2021-02-14 05:00:00 7.3 8 Sudeste 19 Sudeste 0 -- -- 96
2021-02-14 04:00:00 7.2 9 Sur 21 Sudeste 0 -- -- 97
2021-02-14 03:00:00 7.3 8 Sur 15 Sur 0 -- -- 98
2021-02-14 02:00:00 7.4 9 Sur 15 Sur 0 -- -- 98
2021-02-14 01:00:00 7.8 8 Sur 20 Sudeste 0 -- -- 97
2021-02-14 00:00:00 7.4 5 Sur 21 Sudeste 0 -- -- 97
2021-02-13 23:00:00 8 7 Sur 11 Sur 0 -- -- 98
2021-02-13 22:00:00 8.4 7 Sur 10 Sur 0 -- -- 98
2021-02-13 21:00:00 8.6 3 Sudeste 6 Este 0 -- -- 97
2021-02-13 20:00:00 9.6 0 Calma 5 Noroeste 0 -- -- 94
2021-02-13 19:00:00 11.4 3 Oeste 5 Norte 0 -- -- 89
2021-02-13 18:00:00 12.7 4 Noroeste 9 Norte 0 -- -- 86
2021-02-13 17:00:00 13.4 5 Norte 15 Nordeste 0 -- -- 82
2021-02-13 16:00:00 14.2 9 Nordeste 14 Nordeste 0 -- -- 76
2021-02-13 15:00:00 16.2 5 Sudeste 12 Sudeste 0 -- -- 66
2021-02-13 14:00:00 13.8 6 Sudeste 11 Sudeste 0 -- -- 80
2021-02-13 13:00:00 12.1 0 Calma 15 Oeste 0 -- -- 88
2021-02-13 08:00:00 -- -- -- -- -- -- -- -- --
2021-02-13 07:00:00 7.2 6 Sudeste 15 Sudeste 0 -- -- 97
2021-02-13 06:00:00 7.1 6 Sur 18 Sudeste 0 -- -- 98
2021-02-13 05:00:00 7.2 9 Sur 24 Sudeste 0 -- -- 98
2021-02-13 04:00:00 7 8 Sur 19 Sudeste 0 -- -- 99
2021-02-13 03:00:00 6.9 7 Sudeste 17 Sudeste 0 -- -- 99
2021-02-13 02:00:00 7.1 8 Sur 15 Sur 0 -- -- 98
2021-02-13 01:00:00 7.5 5 Sur 9 Sur 0 -- -- 98
2021-02-13 00:00:00 8.2 5 Sudeste 9 Sudeste 0 -- -- 96
2021-02-12 23:00:00 9.1 5 Este 13 Sudoeste 0 -- -- 92
2021-02-12 22:00:00 10.7 6 Sudoeste 11 Sudoeste 0 -- -- 92
2021-02-12 21:00:00 11.7 0 Calma 10 Sur 0 -- -- 88
2021-02-12 20:00:00 12.3 4 Sudoeste 9 Oeste 0 -- -- 89
2021-02-12 19:00:00 12.8 6 Oeste 24 Noroeste 0 -- -- 88
2021-02-12 18:00:00 13.1 11 Oeste 39 Oeste 0 -- -- 87
2021-02-12 17:00:00 12.8 15 Oeste 46 Oeste -- -- -- 90
2021-02-12 16:00:00 13.4 21 Oeste 50 Oeste 0.2 -- -- 87
2021-02-12 15:00:00 12.9 23 Oeste 47 Oeste 2 -- -- 93
2021-02-12 14:00:00 12.6 19 Oeste 48 Oeste 2.8 -- -- 94
2021-02-12 13:00:00 12.5 17 Oeste 44 Oeste 0.8 -- -- 93
2021-02-12 12:00:00 12.6 20 Oeste 49 Oeste 0.6 -- -- 91
2021-02-12 11:00:00 12.8 18 Oeste 37 Oeste 0.4 -- -- 90
2021-02-12 10:00:00 13 19 Oeste 37 Oeste 0.2 -- -- 90
2021-02-12 09:00:00 12.8 10 Oeste 22 Oeste 1 -- -- 96
2021-02-12 08:00:00 12.1 4 Sur 7 Noroeste 0 -- -- 98
2021-02-12 07:00:00 12.4 0 Calma 11 Sur 0.2 -- -- 96
2021-02-12 06:00:00 12.9 4 Sur 21 Noroeste 0.8 -- -- 95
2021-02-12 05:00:00 13.1 13 Oeste 34 Oeste 1.2 -- -- 94
2021-02-12 04:00:00 13.2 21 Oeste 43 Oeste 0.2 -- -- 90
2021-02-12 03:00:00 18.2 9 Oeste 27 Sudoeste 0 -- -- 62
2021-02-12 02:00:00 10.6 2 Sudeste 7 Noroeste 0 -- -- 97
2021-02-12 01:00:00 10.3 3 Oeste 9 Noroeste 0 -- -- 97
2021-02-12 00:00:00 10.7 3 Oeste 6 Noroeste 0 -- -- 94
2021-02-11 23:00:00 11.2 2 Sur 9 Sudeste 0 -- -- 93
2021-02-11 22:00:00 10.5 5 Sudeste 8 Sudeste 0 -- -- 94
2021-02-11 21:00:00 10.8 0 Calma 5 Sudeste 0 -- -- 91
2021-02-11 20:00:00 11.8 0 Calma 5 Oeste 0 -- -- 87
2021-02-11 19:00:00 13.1 4 Noroeste 8 Noroeste 0 -- -- 81
2021-02-11 18:00:00 14.1 5 Noroeste 10 Norte 0 -- -- 75
2021-02-11 17:00:00 15.6 4 Norte 15 Noroeste 0 -- -- 68
2021-02-11 16:00:00 16.8 5 Noroeste 9 Nordeste 0 -- -- 66
2021-02-11 15:00:00 16.1 6 Nordeste 12 Oeste 0.2 -- -- 78
2021-02-11 14:00:00 16.7 7 Noroeste 12 Noroeste 0 -- -- 74
2021-02-11 13:00:00 17.2 0 Calma 8 Sudeste 0 -- -- 67
2021-02-11 12:00:00 16.3 4 Sur 11 Sudeste 0 -- -- 68
2021-02-11 11:00:00 12.6 7 Sur 10 Sur 0 -- -- 78
2021-02-11 10:00:00 10.1 4 Sudeste 15 Sur 0 -- -- 87
2021-02-11 09:00:00 7.8 0 Calma 9 Sudeste 0 -- -- 96
2021-02-11 08:00:00 7.8 3 Sudoeste 9 Sur 0 -- -- 96
2021-02-11 07:00:00 7.8 5 Sudeste 13 Sudeste 0 -- -- 95
2021-02-11 06:00:00 7.1 4 Sudeste 13 Sur 0 -- -- 98
2021-02-11 05:00:00 6.3 7 Sur 13 Sudeste 0 -- -- 97
2021-02-11 04:00:00 6.4 2 Sudoeste 15 Sur 0 -- -- 95
2021-02-11 03:00:00 7.2 8 Sur 15 Sur 0 -- -- 92
2021-02-11 02:00:00 7.9 9 Sudeste 14 Sur 0 -- -- 93
2021-02-11 01:00:00 9.1 10 Sudeste 16 Sudeste 0 -- -- 88
2021-02-11 00:00:00 9.4 7 Sur 13 Sudeste 0 -- -- 88
2021-02-10 23:00:00 10 4 Sur 8 Sudoeste 0 -- -- 87
2021-02-10 22:00:00 11.3 4 Sudoeste 9 Sudoeste 0 -- -- 80
2021-02-10 21:00:00 11.6 4 Sudoeste 9 Sudoeste 0 -- -- 79
2021-02-10 20:00:00 11.7 4 Sudoeste 22 Oeste 0 -- -- 78
2021-02-10 19:00:00 11.9 8 Oeste 22 Oeste 0 -- -- 77
2021-02-10 18:00:00 12.3 10 Oeste 27 Oeste 0 -- -- 73
2021-02-10 17:00:00 12.6 12 Oeste 37 Oeste 0 -- -- 74
2021-02-10 16:00:00 13.2 17 Oeste 38 Oeste 0 -- -- 68
2021-02-10 15:00:00 13.6 22 Oeste 45 Oeste 0 -- -- 64
2021-02-10 14:00:00 12.8 18 Oeste 45 Oeste 0 -- -- 65
2021-02-10 13:00:00 12.9 16 Oeste 48 Oeste 0 -- -- 67
2021-02-10 12:00:00 11.8 15 Oeste 36 Oeste 0 -- -- 72
2021-02-10 11:00:00 10.4 17 Oeste 47 Oeste 0.4 -- -- 78
2021-02-10 10:00:00 10.6 9 Oeste 25 Oeste 0 -- -- 71
2021-02-10 09:00:00 9.2 6 Sudoeste 15 Oeste 0 -- -- 77
2021-02-10 08:00:00 8 5 Sur 12 Sudoeste 0 -- -- 91
2021-02-10 07:00:00 7.8 5 Sur 18 Oeste 0.8 -- -- 92
2021-02-10 06:00:00 6.8 0 Calma 8 Sudoeste 0.2 -- -- 95
2021-02-10 05:00:00 7 2 Sudeste 10 Sudoeste 0 -- -- 92
2021-02-10 04:00:00 6.3 0 Calma 7 Sudeste 0 -- -- 93
2021-02-10 03:00:00 6.9 5 Sudoeste 11 Sur 0 -- -- 93
2021-02-10 02:00:00 5.9 3 Sur 9 Noroeste 0 -- -- 94
2021-02-10 01:00:00 6 2 Sur 8 Sur 0 -- -- 92
2021-02-10 00:00:00 7.3 2 Sur 8 Sudeste 0 -- -- 90
2021-02-09 23:00:00 7.5 3 Sur 7 Sur 0 -- -- 90
2021-02-09 22:00:00 8.3 5 Sudeste 12 Sudeste 0 -- -- 88
2021-02-09 21:00:00 8.2 0 Calma 6 Sur 0 -- -- 91
2021-02-09 20:00:00 8.5 3 Noroeste 7 Oeste 0 -- -- 87
2021-02-09 19:00:00 10.3 3 Sur 12 Sudeste 0 -- -- 82
2021-02-09 18:00:00 12.6 2 Oeste 20 Oeste 0 -- -- 71
2021-02-09 17:00:00 13.8 17 Oeste 26 Oeste 0 -- -- 70
2021-02-09 16:00:00 13.3 4 Sudeste 10 Sur 0 -- -- 82
2021-02-09 15:00:00 11.4 7 Sudeste 21 Sudeste 0 -- -- 88
2021-02-09 14:00:00 11.4 5 Sudoeste 22 Oeste 0.4 -- -- 88
2021-02-09 13:00:00 11.7 13 Oeste 51 Sudoeste 0.6 -- -- 84
2021-02-09 12:00:00 15.8 15 Sudoeste 32 Sudoeste 0 -- -- 53
2021-02-09 11:00:00 15.3 10 Sur 25 Sur 0 -- -- 56
2021-02-09 10:00:00 14.6 8 Sudoeste 27 Sur 0 -- -- 58
2021-02-09 09:00:00 13.5 7 Sudoeste 28 Sur 0 -- -- 61
2021-02-09 08:00:00 13 6 Sudoeste 19 Sur 0 -- -- 62
2021-02-09 07:00:00 12 17 Sudeste 36 Sudeste 0 -- -- 67
2021-02-09 06:00:00 8.1 7 Sudeste 10 Sur 0.4 -- -- 93
2021-02-09 05:00:00 7.8 4 Sur 13 Sudoeste 0 -- -- 93
2021-02-09 04:00:00 8 2 Oeste 14 Sur 0 -- -- 90
2021-02-09 03:00:00 8.9 10 Sudeste 22 Sudeste 0 -- -- 89
2021-02-09 02:00:00 8.8 9 Sudeste 23 Sudeste 0 -- -- 90
2021-02-09 01:00:00 9.2 6 Sur 18 Sudeste 0 -- -- 90
2021-02-09 00:00:00 9.1 6 Sur 17 Sudeste 0 -- -- 91
2021-02-08 23:00:00 9.7 5 Sur 13 Sudoeste 0 -- -- 88
2021-02-08 22:00:00 11.2 4 Sudoeste 11 Sudoeste 0 -- -- 82
2021-02-08 21:00:00 11.6 5 Sudoeste 18 Noroeste 0 -- -- 81
2021-02-08 20:00:00 12.1 7 Oeste 21 Sudoeste 0 -- -- 79
2021-02-08 19:00:00 12.3 9 Oeste 19 Sudoeste 0 -- -- 76
2021-02-08 18:00:00 12.7 10 Oeste 21 Oeste 0 -- -- 72
2021-02-08 17:00:00 13.9 12 Noroeste 32 Noroeste 0 -- -- 65
2021-02-08 16:00:00 14.8 11 Noroeste 28 Noroeste 0 -- -- 63
2021-02-08 15:00:00 14.7 15 Oeste 32 Noroeste 0 -- -- 62
2021-02-08 14:00:00 15.1 14 Noroeste 24 Oeste 0 -- -- 59
2021-02-08 13:00:00 15.1 11 Noroeste 22 Oeste 0 -- -- 59
2021-02-08 12:00:00 14.6 13 Oeste 27 Oeste 0 -- -- 59
2021-02-08 11:00:00 13.6 6 Sudoeste 18 Oeste 0 -- -- 68
2021-02-08 10:00:00 11.7 8 Sudoeste 15 Sur 0 -- -- 75
2021-02-08 09:00:00 11.3 5 Sudoeste 12 Oeste 0 -- -- 74
2021-02-08 08:00:00 11.5 4 Sudoeste 15 Sur 0 -- -- 73
2021-02-08 07:00:00 11.6 6 Sudoeste 13 Oeste 0 -- -- 72
2021-02-08 06:00:00 9.6 4 Oeste -- -- 0 -- -- 89
2021-02-08 05:00:00 10.9 8 Sur 18 Sudeste 0 -- -- 79
2021-02-08 04:00:00 9.7 6 Sudeste 14 Sudeste 0.2 -- -- 98
2021-02-08 03:00:00 8.4 2 Sudoeste 6 Oeste 0 -- -- 98
2021-02-08 02:00:00 7.9 0 Calma 9 Noroeste 0 -- -- 98
2021-02-08 01:00:00 7.3 3 Oeste 8 Noroeste 0 -- -- 98
2021-02-08 00:00:00 7.3 3 Oeste 10 Oeste 0.2 -- -- 97
2021-02-07 23:00:00 7.2 2 Oeste 9 Sudoeste 0 -- -- 96
2021-02-07 22:00:00 7.6 3 Sur 8 Sur 0 -- -- 96
2021-02-07 21:00:00 7.8 4 Sur 5 Sudeste 0.2 -- -- 95
2021-02-07 20:00:00 8.2 2 Noroeste 4 Sudeste 0.2 -- -- 93
2021-02-07 19:00:00 9 2 Oeste 3 Noroeste 0.2 -- -- 86
2021-02-07 18:00:00 10.1 3 Nordeste 6 Nordeste 0 -- -- 68
2021-02-07 17:00:00 10.6 3 Nordeste 6 Nordeste 0 -- -- 63
2021-02-07 16:00:00 10.6 3 Oeste 11 Noroeste 0 -- -- 64
2021-02-07 15:00:00 10.8 6 Oeste 16 Oeste 0 -- -- 61
2021-02-07 14:00:00 11.5 8 Noroeste 15 Noroeste 0 -- -- 58
2021-02-07 13:00:00 11.9 5 Oeste 21 Sudoeste 0 -- -- 58
2021-02-07 12:00:00 11.3 7 Oeste 20 Oeste 0 -- -- 59
2021-02-07 11:00:00 10.3 5 Sudoeste 16 Oeste 0 -- -- 66
2021-02-07 10:00:00 8.9 6 Sudoeste 13 Sudoeste 0 -- -- 71
2021-02-07 09:00:00 7.9 8 Sudoeste 18 Sudoeste 0 -- -- 72
2021-02-07 08:00:00 7.7 8 Sudoeste 15 Sudoeste 0 -- -- 75
2021-02-07 07:00:00 7.1 5 Sudoeste 14 Sudoeste 0.2 -- -- 80
2021-02-07 06:00:00 7 8 Oeste 14 Sudoeste 0 -- -- 82
2021-02-07 05:00:00 7.1 8 Sudoeste 18 Sudoeste 0.2 -- -- 81
2021-02-07 04:00:00 7.1 5 Sudoeste 20 Oeste 0 -- -- 83
2021-02-07 03:00:00 7.1 9 Sudoeste 24 Oeste 0.6 -- -- 87
2021-02-07 02:00:00 7.8 13 Oeste 22 Sudoeste 0 -- -- 82
2021-02-07 01:00:00 7.7 11 Sudoeste 24 Oeste 0 -- -- 84
2021-02-07 00:00:00 7.4 9 Sudoeste 22 Sudoeste 0 -- -- 88
2021-02-06 23:00:00 7.3 8 Sudoeste 15 Sudoeste 0 -- -- 89
2021-02-06 22:00:00 7.8 7 Sudoeste 15 Sur 0 -- -- 87
2021-02-06 21:00:00 8.3 5 Sudoeste 15 Sudoeste 0.2 -- -- 86
2021-02-06 20:00:00 8.8 5 Sudoeste 18 Noroeste -- -- -- 81
2021-02-06 19:00:00 9.3 6 Oeste 17 Oeste 0 -- -- 78
2021-02-06 18:00:00 9.3 7 Oeste 17 Sudoeste 0 -- -- 86
2021-02-06 17:00:00 8.9 7 Oeste 28 Noroeste 0.8 -- -- 94
2021-02-06 16:00:00 9.4 5 Oeste 13 Oeste 0.8 -- -- 94
2021-02-06 15:00:00 9.6 7 Noroeste 17 Oeste 0.8 -- -- 92
2021-02-06 14:00:00 9.7 9 Noroeste 28 Noroeste 0.8 -- -- 91
2021-02-06 13:00:00 9.8 11 Noroeste 23 Noroeste 2 -- -- 95
2021-02-06 12:00:00 9.7 14 Noroeste 30 Noroeste 2 -- -- 95
2021-02-06 11:00:00 10 16 Noroeste 32 Noroeste 3.2 -- -- 96
2021-02-06 10:00:00 10 15 Noroeste 39 Noroeste 3.8 -- -- 95
2021-02-06 09:00:00 10.2 19 Noroeste 41 Noroeste 3.2 -- -- 97
2021-02-06 08:00:00 10.5 19 Noroeste 40 Noroeste 2.8 -- -- 99
2021-02-06 07:00:00 10.8 18 Norte 33 Noroeste 7.4 -- -- 100
2021-02-06 06:00:00 11.3 14 Norte 28 Norte 8.4 -- -- 100
2021-02-06 05:00:00 11.5 10 Nordeste 24 Nordeste 2.8 -- -- 100
2021-02-06 04:00:00 11.5 10 Nordeste 25 Nordeste 0.6 -- -- 100
2021-02-06 03:00:00 11.5 12 Nordeste 25 Nordeste 0.8 -- -- 100
2021-02-06 02:00:00 11.5 10 Nordeste 29 Nordeste 0.8 -- -- 100
2021-02-06 01:00:00 11.3 15 Nordeste 29 Nordeste 1.6 -- -- 100
2021-02-06 00:00:00 11.3 14 Nordeste 28 Nordeste 0.6 -- -- 99
2021-02-05 23:00:00 11.4 12 Nordeste 23 Nordeste 0.2 -- -- 99
2021-02-05 22:00:00 11.2 0 Calma 13 Este 0.2 -- -- 100
2021-02-05 21:00:00 11.2 8 Nordeste 20 Nordeste 0.6 -- -- 99
2021-02-05 20:00:00 11.3 7 Nordeste 14 Nordeste 0.8 -- -- 99
2021-02-05 19:00:00 11.2 4 Nordeste 10 Norte 0.2 -- -- 99
2021-02-05 18:00:00 11.4 5 Nordeste 13 Nordeste 0.2 -- -- 99
2021-02-05 17:00:00 11.4 5 Norte 13 Norte 0 -- -- 100
2021-02-05 16:00:00 11.3 8 Nordeste 21 Nordeste 0.4 -- -- 100
2021-02-05 15:00:00 11.4 10 Nordeste 17 Nordeste 0.4 -- -- 100
2021-02-05 14:00:00 11.2 2 Sudoeste 5 Noroeste 0.6 -- -- 100
2021-02-05 13:00:00 10.6 2 Este 6 Sudeste 0 -- -- 100
2021-02-05 12:00:00 10.5 2 Sudeste 7 Sudoeste 0.2 -- -- 100
2021-02-05 11:00:00 10.1 2 Este 5 Sur 0 -- -- 99
2021-02-05 10:00:00 10 3 Sur 6 Sudeste 0.6 -- -- 99
2021-02-05 09:00:00 9.7 3 Sudeste 9 Sudeste 0.8 -- -- 99
2021-02-05 08:00:00 9.7 5 Sur 8 Sur 1.6 -- -- 99
2021-02-05 07:00:00 9.6 3 Sudoeste 9 Sur 2.2 -- -- 99
2021-02-05 06:00:00 9.5 5 Sur 9 Sur 0 -- -- 98
2021-02-05 05:00:00 9.5 4 Sur 8 Sudeste 0.8 -- -- 98
2021-02-05 04:00:00 9.6 6 Sudeste 15 Sudeste 0.6 -- -- 97
2021-02-05 03:00:00 9.7 6 Sudeste 12 Sudeste 0 -- -- 97
2021-02-05 02:00:00 9.8 4 Sur 11 Sudeste 0 -- -- 97
2021-02-05 01:00:00 10 4 Sudeste 8 Sur 0.2 -- -- 97
2021-02-05 00:00:00 9.7 5 Oeste 8 Noroeste 0 -- -- 97
2021-02-04 23:00:00 10 4 Noroeste 8 Noroeste 0 -- -- 96
2021-02-04 22:00:00 10 6 Este 17 Sudeste 0.2 -- -- 96
2021-02-04 21:00:00 10.1 9 Sudeste 15 Sudeste 1 -- -- 96
2021-02-04 20:00:00 10.1 5 Sudeste 9 Sudeste 1.4 -- -- 96
2021-02-04 19:00:00 10.3 4 Sudeste 12 Sudeste 0.4 -- -- 95
2021-02-04 18:00:00 10.8 5 Sudeste 10 Sudeste 1 -- -- 92
2021-02-04 17:00:00 11.5 3 Sudoeste 12 Sudoeste 0.8 -- -- 84
2021-02-04 16:00:00 11.9 4 Oeste 14 Oeste 1 -- -- 87
2021-02-04 15:00:00 13.2 3 Oeste 12 Noroeste 0.4 -- -- 83
2021-02-04 14:00:00 14.3 3 Noroeste 8 Nordeste 0 -- -- 70
2021-02-04 13:00:00 14.1 4 Sudoeste 10 Sur 0 -- -- 68
2021-02-04 12:00:00 13.8 0 Calma 6 Noroeste 0 -- -- 71
2021-02-04 11:00:00 13.4 4 Noroeste 11 Oeste 0 -- -- 66
2021-02-04 10:00:00 12.8 5 Oeste 10 Oeste 0 -- -- 64
2021-02-04 09:00:00 13 4 Sudeste 11 Sudeste 0 -- -- 61
2021-02-04 08:00:00 14.1 4 Este 26 Sur 0 -- -- 53
2021-02-04 07:00:00 15.8 13 Sudoeste 39 Sudoeste 0 -- -- 42
2021-02-04 06:00:00 15.8 14 Sudoeste 33 Sur 0 -- -- 42
2021-02-04 05:00:00 15.8 8 Sudoeste 23 Sur 0 -- -- 43
2021-02-04 04:00:00 15.8 10 Sudoeste 28 Sur 0 -- -- 43
2021-02-04 03:00:00 16 14 Sur 33 Sur 0 -- -- 48
2021-02-04 02:00:00 16.2 14 Sur 30 Sur 0 -- -- 49
2021-02-04 01:00:00 15.2 11 Sur 23 Sur 0 -- -- 56
2021-02-04 00:00:00 14.2 6 Sur 17 Sudeste 0 -- -- 62
2021-02-03 23:00:00 9.5 4 Noroeste 9 Noroeste 0 -- -- 93
2021-02-03 22:00:00 10.1 0 Calma 8 Noroeste 0 -- -- 91
2021-02-03 21:00:00 10.8 0 Calma 9 Sudeste 0 -- -- 85
2021-02-03 20:00:00 12.1 3 Sudeste 8 Nordeste 0 -- -- 80
2021-02-03 19:00:00 13.3 8 Este 23 Este 0 -- -- 74
2021-02-03 18:00:00 14.1 14 Nordeste 31 Nordeste 0 -- -- 66
2021-02-03 17:00:00 14.7 21 Nordeste 29 Nordeste 0 -- -- 63
2021-02-03 16:00:00 16 9 Nordeste 22 Nordeste 0 -- -- 59
2021-02-03 15:00:00 15.8 12 Nordeste 23 Nordeste 0 -- -- 62
2021-02-03 14:00:00 16.3 13 Nordeste 22 Nordeste 0 -- -- 63
2021-02-03 13:00:00 16.4 12 Nordeste 22 Nordeste 0 -- -- 64
2021-02-03 12:00:00 16.7 9 Nordeste 14 Nordeste 0 -- -- 66
2021-02-03 11:00:00 16.3 8 Nordeste 12 Nordeste 0 -- -- 69
2021-02-03 10:00:00 14.3 3 Nordeste 10 Noroeste 0 -- -- 79
2021-02-03 09:00:00 13.3 2 Norte 12 Norte 0 -- -- 81
2021-02-03 08:00:00 14.6 5 Norte 18 Noroeste 0 -- -- 71
2021-02-03 07:00:00 15.5 13 Noroeste 36 Sudoeste 0 -- -- 63
2021-02-03 06:00:00 17.9 17 Sudoeste 54 Sudoeste 0 -- -- 51
2021-02-03 05:00:00 18.3 23 Sudoeste 58 Sudoeste 0 -- -- 49
2021-02-03 04:00:00 18.5 20 Sudoeste 48 Oeste 0 -- -- 49
2021-02-03 03:00:00 18.4 13 Sudoeste 33 Sur 0 -- -- 50
2021-02-03 02:00:00 18.1 16 Sur 38 Sudeste 0 -- -- 53
2021-02-03 01:00:00 16.7 4 Norte 26 Sur 0 -- -- 59
2021-02-03 00:00:00 17.2 8 Sur 27 Sudoeste 0 -- -- 56
2021-02-02 23:00:00 15.5 6 Sur 23 Sudeste 0 -- -- 62
2021-02-02 22:00:00 17.8 12 Sur 32 Sur 0 -- -- 54
2021-02-02 21:00:00 15.9 7 Sudoeste 36 Sudoeste 0.2 -- -- 69
2021-02-02 20:00:00 16.7 10 Sudoeste 34 Sudeste 0.2 -- -- 64
2021-02-02 19:00:00 17.6 14 Sur 30 Sur 0 -- -- 59
2021-02-02 18:00:00 16.6 13 Sudeste 26 Sudeste 0 -- -- 67
2021-02-02 17:00:00 16.8 11 Sudeste 29 Sudeste 0 -- -- 66
2021-02-02 16:00:00 15.9 19 Sudeste 33 Sudeste 0.4 -- -- 75
2021-02-02 15:00:00 19.4 4 Noroeste 17 Sudeste 0.2 -- -- 67
2021-02-02 14:00:00 20 7 Sudeste 23 Este 0 -- -- 58
2021-02-02 13:00:00 21.3 8 Sudeste 25 Sudeste 0 -- -- 52
2021-02-02 12:00:00 17.3 4 Sur 12 Sudeste 0 -- -- 77
2021-02-02 11:00:00 13.7 3 Noroeste 8 Sudeste 0 -- -- 98
2021-02-02 10:00:00 9.7 5 Oeste 10 Noroeste 0 -- -- 99
2021-02-02 09:00:00 8.4 0 Calma 5 Oeste 0 -- -- 98
2021-02-02 08:00:00 8.9 3 Norte 9 Sur 0 -- -- 97
2021-02-02 07:00:00 9.3 5 Sur 20 Sudeste 0 -- -- 98
2021-02-02 06:00:00 9 9 Sudeste 15 Sur 0 -- -- 98
2021-02-02 05:00:00 9.1 8 Sudeste 13 Sur 0 -- -- 97
2021-02-02 04:00:00 9.7 0 Calma 10 Sudeste 0 -- -- 96
2021-02-02 03:00:00 10.5 3 Sur 7 Sur 0 -- -- 95
2021-02-02 02:00:00 11.7 0 Calma 4 Oeste 0 -- -- 91
2021-02-02 01:00:00 13.9 4 Sur 17 Sudeste 0 -- -- 85
2021-02-02 00:00:00 14 10 Sur 19 Sudeste 0 -- -- 88
2021-02-01 23:00:00 13.8 12 Sudeste 22 Sudeste 0 -- -- 90
2021-02-01 22:00:00 13.4 6 Sur 10 Sur 0 -- -- 92
2021-02-01 21:00:00 13.4 5 Sur 8 Sudeste 0 -- -- 92
2021-02-01 20:00:00 13.4 4 Este 8 Sudeste 0 -- -- 92
2021-02-01 19:00:00 14.2 0 Calma 8 Nordeste 0 -- -- 87
2021-02-01 18:00:00 15.5 2 Oeste 23 Oeste 0 -- -- 77
2021-02-01 17:00:00 16.1 7 Sudoeste 22 Oeste 0 -- -- 74
2021-02-01 16:00:00 16.1 9 Oeste 32 Oeste 0 -- -- 74
2021-02-01 15:00:00 16.7 17 Oeste 44 Sudoeste 0 -- -- 74
2021-02-01 14:00:00 16.2 21 Oeste 54 Oeste 0 -- -- 74
2021-02-01 13:00:00 16.1 17 Oeste 47 Noroeste 0 -- -- 73
2021-02-01 12:00:00 15.8 17 Oeste 41 Oeste 0 -- -- 72
2021-02-01 11:00:00 15.3 10 Sudoeste 32 Oeste 0 -- -- 71
2021-02-01 10:00:00 14.4 9 Oeste 35 Oeste 0 -- -- 75
2021-02-01 09:00:00 14 17 Oeste 40 Oeste 0 -- -- 75
2021-02-01 08:00:00 14 19 Oeste 44 Sudoeste 0 -- -- 73
2021-02-01 07:00:00 14.4 18 Oeste 44 Oeste 0 -- -- 67
2021-02-01 06:00:00 14.9 18 Oeste 48 Oeste 0 -- -- 65
2021-02-01 05:00:00 14.8 23 Oeste 55 Oeste 0 -- -- 67
2021-02-01 04:00:00 14.6 27 Oeste 56 Oeste 0 -- -- 71
2021-02-01 03:00:00 14.5 27 Oeste 46 Oeste 0 -- -- 72
2021-02-01 02:00:00 14.1 18 Oeste 51 Oeste 0 -- -- 74
2021-02-01 01:00:00 14.5 20 Oeste 60 Oeste 0 -- -- 72
2021-02-01 00:00:00 15.5 29 Oeste 67 Oeste 0 -- -- 67
2021-01-31 23:00:00 15 13 Oeste 49 Oeste 0 -- -- 73
2021-01-31 22:00:00 15.3 22 Oeste 44 Sudoeste 0 -- -- 72
2021-01-31 21:00:00 15.1 14 Sudoeste 36 Sur 0 -- -- 78
2021-01-31 20:00:00 12.5 5 Sudoeste 15 Noroeste 0 -- -- 95
2021-01-31 19:00:00 13.1 2 Sur 8 Oeste 0 -- -- 91
2021-01-31 18:00:00 15.2 0 Calma 8 Sudeste 0 -- -- 81
2021-01-31 17:00:00 16.9 5 Sudeste 11 Norte 0 -- -- 79
2021-01-31 16:00:00 17 6 Nordeste 16 Oeste 0 -- -- 77
2021-01-31 15:00:00 16.7 8 Oeste 29 Noroeste 0 -- -- 79
2021-01-31 14:00:00 15.6 18 Oeste 34 Oeste 0 -- -- 81
2021-01-31 13:00:00 16.1 12 Oeste 26 Oeste 0 -- -- 80
2021-01-31 12:00:00 13.9 6 Sur 15 Sur 0.2 -- -- 92
2021-01-31 11:00:00 11.9 8 Sudeste 15 Sudeste 0 -- -- 93
2021-01-31 10:00:00 10.9 5 Sudeste 26 Sudoeste 1 -- -- 92
2021-01-31 09:00:00 13.2 10 Oeste 31 Oeste 0 -- -- 71
2021-01-31 08:00:00 13 14 Oeste 41 Oeste 0 -- -- 71
2021-01-31 07:00:00 13.3 18 Oeste 54 Oeste 0 -- -- 60
2021-01-31 06:00:00 13.2 19 Oeste 59 Oeste 0 -- -- 63
2021-01-31 05:00:00 12.4 18 Oeste 52 Oeste 0 -- -- 72
2021-01-31 04:00:00 11.8 17 Oeste 67 Oeste 0 -- -- 77
2021-01-31 03:00:00 11.4 30 Oeste 76 Oeste 0 -- -- 81
2021-01-31 02:00:00 12.3 32 Oeste 68 Oeste 0 -- -- 72
2021-01-31 01:00:00 12.2 28 Oeste 67 Oeste 0 -- -- 73
2021-01-31 00:00:00 11.6 31 Oeste 65 Oeste 0 -- -- 77
2021-01-30 23:00:00 11.9 18 Oeste 60 Oeste 0 -- -- 71
2021-01-30 22:00:00 12.3 19 Oeste 62 Oeste 0 -- -- 67
2021-01-30 21:00:00 12.7 32 Oeste 63 Oeste 0 -- -- 62
2021-01-30 20:00:00 12.6 21 Oeste 44 Oeste 0 -- -- 63
2021-01-30 19:00:00 12.7 23 Oeste 50 Oeste 0 -- -- 61
2021-01-30 18:00:00 13.1 16 Oeste 53 Oeste 0 -- -- 58
2021-01-30 17:00:00 13.2 17 Oeste 41 Oeste 0 -- -- 58
2021-01-30 16:00:00 13.8 15 Oeste 40 Oeste 0 -- -- 62
2021-01-30 15:00:00 14.4 16 Oeste 40 Oeste 0 -- -- 63
2021-01-30 14:00:00 14 21 Oeste 43 Oeste 0.2 -- -- 58
2021-01-30 13:00:00 14.1 26 Oeste 43 Oeste 0.2 -- -- 58
2021-01-30 12:00:00 14.3 15 Oeste 30 Oeste 0 -- -- 64
2021-01-30 11:00:00 14 5 Oeste 23 Oeste 0 -- -- 70
2021-01-30 10:00:00 12.6 5 Sudoeste 20 Sudoeste 0.2 -- -- 82
2021-01-30 09:00:00 10.6 3 Oeste 9 Sudeste 0 -- -- 95
2021-01-30 08:00:00 11.4 0 Calma 17 Oeste 0 -- -- 88
2021-01-30 07:00:00 13.5 9 Oeste 27 Oeste 1.2 -- -- 87
2021-01-30 06:00:00 13.2 5 Oeste 18 Noroeste 0 -- -- 95
2021-01-30 05:00:00 13.4 4 Oeste 12 Este 0 -- -- 93
2021-01-30 04:00:00 14.6 6 Noroeste 22 Oeste 0 -- -- 87
2021-01-30 03:00:00 16.7 10 Oeste 25 Oeste 0 -- -- 71
2021-01-30 02:00:00 17.8 10 Sudoeste 27 Sudoeste 0 -- -- 60
2021-01-30 01:00:00 13.6 7 Sur 22 Oeste 0 -- -- 95
2021-01-30 00:00:00 10.7 3 Sudoeste 9 Noroeste 0 -- -- 100
2021-01-29 23:00:00 10.1 2 Sur 7 Noroeste 0 -- -- 99
2021-01-29 22:00:00 10.8 4 Sur 8 Noroeste 0 -- -- 99
2021-01-29 21:00:00 11.8 4 Noroeste 7 Noroeste 0 -- -- 98
2021-01-29 20:00:00 12.2 0 Calma 4 Noroeste 0 -- -- 97
2021-01-29 19:00:00 13.4 0 Calma 3 Norte 0 -- -- 94
2021-01-29 18:00:00 14.5 2 Nordeste 9 Nordeste 0 -- -- 90
2021-01-29 17:00:00 15.2 5 Norte 10 Norte 0 -- -- 88
2021-01-29 16:00:00 15.6 4 Norte 13 Norte 0 -- -- 87
2021-01-29 15:00:00 16.5 7 Norte 13 Nordeste 0 -- -- 85
2021-01-29 14:00:00 16.8 9 Nordeste 15 Nordeste 0 -- -- 85
2021-01-29 13:00:00 16.7 5 Sudeste 9 Sudeste 0 -- -- 90
2021-01-29 12:00:00 14.5 4 Sur 15 Sudeste 0.4 -- -- 98
2021-01-29 11:00:00 13.4 5 Sudeste 15 Sudeste 0.2 -- -- 100
2021-01-29 10:00:00 12.6 8 Sudeste 13 Sudeste 0.6 -- -- 100
2021-01-29 09:00:00 12.1 6 Sudeste 12 Sudeste 0.8 -- -- 100
2021-01-29 08:00:00 11.9 7 Sudeste 13 Sudeste 0.6 -- -- 99
2021-01-29 07:00:00 11.9 5 Sudeste 9 Sur 0.8 -- -- 99
2021-01-29 06:00:00 11.8 4 Sudeste 16 Sudeste 1 -- -- 98
2021-01-29 05:00:00 11.5 3 Sur 13 Sur 0.4 -- -- 98
2021-01-29 04:00:00 11.1 8 Sur 13 Sur 0 -- -- 97
2021-01-29 03:00:00 11 8 Sur 14 Sur 0 -- -- 97
2021-01-29 02:00:00 10.6 9 Sudeste 15 Sudeste 0 -- -- 98
2021-01-29 01:00:00 10.5 6 Sur 9 Sur 0 -- -- 97
2021-01-29 00:00:00 10.8 3 Sur 14 Sur 0 -- -- 97
2021-01-28 23:00:00 10.2 5 Sur 16 Sur 0 -- -- 97
2021-01-28 22:00:00 10.9 4 Sur 14 Sur 0 -- -- 95
2021-01-28 21:00:00 11.1 5 Sur 13 Sur 0 -- -- 95
2021-01-28 20:00:00 12.2 4 Oeste 8 Noroeste 0 -- -- 91
2021-01-28 19:00:00 13.6 3 Oeste 14 Noroeste 0 -- -- 86
2021-01-28 18:00:00 14.6 8 Noroeste 12 Noroeste 0 -- -- 84
2021-01-28 17:00:00 15.6 6 Norte 14 Norte 0 -- -- 81
2021-01-28 16:00:00 17.1 4 Norte 9 Nordeste 0 -- -- 76
2021-01-28 15:00:00 17.1 6 Nordeste 10 Nordeste 0 -- -- 79
2021-01-28 14:00:00 17.8 6 Nordeste 11 Sudeste 0 -- -- 71
2021-01-28 13:00:00 16.9 8 Sudeste 17 Sudeste 0 -- -- 83
2021-01-28 12:00:00 15.2 11 Sudeste 19 Sudeste 0 -- -- 89
2021-01-28 11:00:00 13.7 9 Sudeste 14 Sudeste 0 -- -- 97
2021-01-28 10:00:00 11.9 6 Sur 12 Sudeste 0 -- -- 100
2021-01-28 09:00:00 11.6 7 Sur 10 Sudeste 0 -- -- 100
2021-01-28 08:00:00 11.8 4 Sur 9 Sur 0 -- -- 98
2021-01-28 07:00:00 12.4 2 Sur 10 Sudeste 0 -- -- 99
2021-01-28 06:00:00 12.3 4 Sur 8 Sur 0 -- -- 98
2021-01-28 05:00:00 12.5 4 Sudeste 13 Nordeste 0 -- -- 96
2021-01-28 04:00:00 13.4 3 Norte 12 Este 0 -- -- 96
2021-01-28 03:00:00 13.6 4 Noroeste 10 Noroeste 0 -- -- 97
2021-01-28 02:00:00 13.6 0 Calma 8 Sudeste 0 -- -- 97
2021-01-28 01:00:00 13.8 5 Sur 11 Sur 0 -- -- 97
2021-01-28 00:00:00 14 2 Noroeste 4 Noroeste 0 -- -- 95
2021-01-27 23:00:00 14.1 2 Sudoeste 5 Oeste 0 -- -- 94
2021-01-27 22:00:00 14.5 5 Noroeste 8 Noroeste 0 -- -- 92
2021-01-27 21:00:00 14.7 5 Nordeste 8 Norte 0 -- -- 95
2021-01-27 20:00:00 15.1 2 Oeste 6 Noroeste 0 -- -- 94
2021-01-27 19:00:00 16 0 Calma 6 Noroeste 0 -- -- 92
2021-01-27 18:00:00 17.2 0 Calma 7 Oeste 0 -- -- 89
2021-01-27 17:00:00 17.9 3 Sudoeste 21 Oeste 0 -- -- 82
2021-01-27 16:00:00 18 5 Sudoeste 19 Sudoeste 0 -- -- 81
2021-01-27 15:00:00 18.3 6 Sudoeste 15 Sudoeste 0 -- -- 83
2021-01-27 14:00:00 17.1 7 Sur 12 Sudeste 0 -- -- 89
2021-01-27 13:00:00 15.6 4 Sudeste 8 Sudeste 0 -- -- 97
2021-01-27 12:00:00 14.9 0 Calma 6 Sudoeste 0 -- -- 98
2021-01-27 11:00:00 14.8 0 Calma 14 Oeste 0.2 -- -- 97
2021-01-27 10:00:00 14.6 3 Oeste 10 Sudoeste 0.4 -- -- 97
2021-01-27 09:00:00 14.5 6 Oeste 17 Oeste 0.8 -- -- 97
2021-01-27 08:00:00 14.5 9 Oeste 24 Oeste 0.8 -- -- 97
2021-01-27 07:00:00 14.6 9 Oeste 19 Oeste 1 -- -- 97
2021-01-27 06:00:00 14.7 8 Oeste 16 Oeste 1.6 -- -- 98
2021-01-27 05:00:00 14.8 8 Oeste 20 Sudoeste 0.4 -- -- 98
2021-01-27 04:00:00 14.8 4 Sudoeste 19 Oeste 0.4 -- -- 98
2021-01-27 03:00:00 14.7 9 Oeste 21 Noroeste 0.4 -- -- 99
2021-01-27 02:00:00 12.7 0 Calma 3 Sudeste 0.6 -- -- 99
2021-01-27 01:00:00 12.8 3 Sur 9 Sudeste 0.2 -- -- 99
2021-01-27 00:00:00 12.8 4 Sudeste 9 Sudeste 0.4 -- -- 99
2021-01-26 23:00:00 13.1 6 Sur 9 Sur 0.8 -- -- 98
2021-01-26 22:00:00 13.1 4 Sudeste 6 Sudeste 0.6 -- -- 97
2021-01-26 21:00:00 13.2 2 Sudoeste 11 Sudeste 0 -- -- 95
2021-01-26 20:00:00 13.5 5 Sudeste 10 Sudeste 0 -- -- 93
2021-01-26 19:00:00 13.8 3 Sudeste 8 Sudeste 0 -- -- 92
2021-01-26 18:00:00 14.5 6 Sur 10 Sudeste 0 -- -- 88
2021-01-26 17:00:00 14.6 5 Sudeste 14 Sudeste 0 -- -- 88
2021-01-26 16:00:00 14.5 6 Sudeste 10 Sudeste 0 -- -- 86
2021-01-26 15:00:00 14.2 7 Sudeste 14 Sudeste 0 -- -- 84
2021-01-26 14:00:00 13.3 6 Sur 16 Sudeste 0 -- -- 85
2021-01-26 13:00:00 12.2 11 Sudeste 22 Sudeste 0 -- -- 84
2021-01-26 12:00:00 10 11 Sudeste 21 Sudeste 0 -- -- 92
2021-01-26 11:00:00 8 13 Sudeste 21 Sudeste 0 -- -- 98
2021-01-26 10:00:00 6.1 7 Sur 17 Sur 0 -- -- 99
2021-01-26 09:00:00 4.9 8 Sur 14 Sudeste 0 -- -- 99
2021-01-26 08:00:00 4.2 7 Sur 15 Sudeste 0 -- -- 100
2021-01-26 07:00:00 4.1 8 Sudeste 18 Sudeste 0 -- -- 100
2021-01-26 06:00:00 4.6 9 Sudeste 18 Sudeste 0 -- -- 100
2021-01-26 05:00:00 4.9 8 Sur 15 Sur 0 -- -- 99
2021-01-26 04:00:00 5.1 6 Sudeste 14 Sur 0 -- -- 98
2021-01-26 03:00:00 5.9 8 Sur 17 Sudeste 0 -- -- 99
2021-01-26 02:00:00 5.9 8 Sur 15 Sur 0 -- -- 99
2021-01-26 01:00:00 7.1 2 Sur 10 Sudeste 0.2 -- -- 98
2021-01-26 00:00:00 7.9 6 Sudeste 16 Sudeste 0 -- -- 97
2021-01-25 23:00:00 8.3 6 Sudeste 12 Sudeste 0 -- -- 97
2021-01-25 22:00:00 8.6 4 Sur 10 Sudeste 0 -- -- 97
2021-01-25 21:00:00 8.8 5 Sur 10 Sur 0 -- -- 97
2021-01-25 20:00:00 8.7 4 Sur 9 Sur 0 -- -- 98
2021-01-25 19:00:00 8.8 0 Calma 9 Noroeste 0.2 -- -- 98
2021-01-25 18:00:00 9.3 7 Noroeste 11 Noroeste 0.6 -- -- 97
2021-01-25 17:00:00 9.6 3 Noroeste 9 Noroeste 0 -- -- 97
2021-01-25 16:00:00 9.6 3 Norte 13 Nordeste 0.2 -- -- 99
2021-01-25 15:00:00 9.5 4 Nordeste 15 Nordeste 0.6 -- -- 99
2021-01-25 14:00:00 9.6 8 Nordeste 19 Este 0.8 -- -- 99
2021-01-25 13:00:00 10 0 Calma 6 Norte 0.4 -- -- 99
2021-01-25 12:00:00 10.1 4 Noroeste 8 Noroeste 0.8 -- -- 100
2021-01-25 11:00:00 9.8 4 Sudeste 8 Sudeste 0.4 -- -- 100
2021-01-25 10:00:00 9.2 5 Sudeste 12 Sur 0.2 -- -- 100
2021-01-25 09:00:00 9 5 Sudeste 9 Sudeste 0.2 -- -- 100
2021-01-25 08:00:00 8.8 4 Sudeste 8 Sudeste 0.4 -- -- 100
2021-01-25 07:00:00 9 5 Sudeste 9 Sudeste 0.6 -- -- 100
2021-01-25 06:00:00 9.2 2 Sudeste 9 Sudeste 1.4 -- -- 99
2021-01-25 05:00:00 9.2 8 Sudeste 13 Sudeste 1 -- -- 99
2021-01-25 04:00:00 9.5 6 Sudeste 12 Sudeste 1.2 -- -- 99
2021-01-25 03:00:00 9.7 5 Sudeste 9 Sur 0.6 -- -- 98
2021-01-25 02:00:00 9.9 5 Sur 12 Sudoeste 0.6 -- -- 97
2021-01-25 01:00:00 10.1 5 Oeste 17 Oeste 1 -- -- 94
2021-01-25 00:00:00 10.3 8 Oeste 27 Oeste 0.2 -- -- 93